createdAt,value
2022-07-30T00:00:47.637Z,991.54
2022-07-30T00:01:49.390Z,991.49
2022-07-30T00:02:51.111Z,991.49
2022-07-30T00:03:52.939Z,991.43
2022-07-30T00:04:54.633Z,991.43
2022-07-30T00:05:56.299Z,991.47
2022-07-30T00:06:58.436Z,991.5
2022-07-30T00:07:59.830Z,991.47
2022-07-30T00:09:01.601Z,991.47
2022-07-30T00:10:03.473Z,991.46
2022-07-30T00:11:05.128Z,991.38
2022-07-30T00:12:06.842Z,991.48
2022-07-30T00:13:08.472Z,991.44
2022-07-30T00:14:10.192Z,991.49
2022-07-30T00:15:11.995Z,991.45
2022-07-30T00:16:13.922Z,991.42
2022-07-30T00:17:15.363Z,991.43
2022-07-30T00:18:17.105Z,991.35
2022-07-30T00:19:18.939Z,991.35
2022-07-30T00:20:20.668Z,991.34
2022-07-30T00:21:35.773Z,991.36
2022-07-30T00:22:24.040Z,991.31
2022-07-30T00:23:25.775Z,991.29
2022-07-30T00:24:27.530Z,991.24
2022-07-30T00:25:29.299Z,991.27
2022-07-30T00:26:30.977Z,991.21
2022-07-30T00:27:32.705Z,991.19
2022-07-30T00:28:34.440Z,991.2
2022-07-30T00:29:36.280Z,991.17
2022-07-30T00:30:37.971Z,991.2
2022-07-30T00:31:39.791Z,991.12
2022-07-30T00:32:41.516Z,991.16
2022-07-30T00:33:43.154Z,991.19
2022-07-30T00:34:44.985Z,991.15
2022-07-30T00:35:46.683Z,991.19
2022-07-30T00:36:48.336Z,991.15
2022-07-30T00:37:50.242Z,991.07
2022-07-30T00:38:51.813Z,991.14
2022-07-30T00:39:53.630Z,991.08
2022-07-30T00:40:55.302Z,991.07
2022-07-30T00:41:57.013Z,991.08
2022-07-30T00:42:58.707Z,991.06
2022-07-30T00:44:00.489Z,991.05
2022-07-30T00:45:02.487Z,991.03
2022-07-30T00:46:04.997Z,991.04
2022-07-30T00:47:05.699Z,991.01
2022-07-30T00:48:07.426Z,990.99
2022-07-30T00:49:09.232Z,991.02
2022-07-30T00:50:11.082Z,991.01
2022-07-30T00:51:12.717Z,990.98
2022-07-30T00:52:14.311Z,991.02
2022-07-30T00:53:16.115Z,991
2022-07-30T00:54:17.793Z,991.04
2022-07-30T00:55:19.599Z,991.08
2022-07-30T00:56:21.303Z,991.08
2022-07-30T00:57:23.125Z,991.04
2022-07-30T00:58:24.725Z,991.06
2022-07-30T00:59:26.558Z,991.02
2022-07-30T01:00:28.252Z,990.97
2022-07-30T01:01:30.003Z,991
2022-07-30T01:02:31.806Z,990.97
2022-07-30T01:03:33.519Z,990.97
2022-07-30T01:04:35.232Z,990.98
2022-07-30T01:05:37.017Z,990.97
2022-07-30T01:06:38.656Z,990.96
2022-07-30T01:07:40.331Z,990.95
2022-07-30T01:08:42.196Z,990.98
2022-07-30T01:09:48.469Z,990.98
2022-07-30T01:10:45.549Z,991
2022-07-30T01:11:47.293Z,991.03
2022-07-30T01:12:50.268Z,991.07
2022-07-30T01:13:50.966Z,991.14
2022-07-30T01:14:52.049Z,991.09
2022-07-30T01:15:54.190Z,991.12
2022-07-30T01:16:56.086Z,991.16
2022-07-30T01:17:57.647Z,991.14
2022-07-30T01:18:59.454Z,991.16
2022-07-30T01:20:01.139Z,991.16
2022-07-30T01:21:06.011Z,991.18
2022-07-30T01:22:04.632Z,991.14
2022-07-30T01:23:06.438Z,991.18
2022-07-30T01:24:08.056Z,991.18
2022-07-30T01:25:09.966Z,991.18
2022-07-30T01:26:11.593Z,991.18
2022-07-30T01:27:14.822Z,991.2
2022-07-30T01:28:15.049Z,991.17
2022-07-30T01:29:16.818Z,991.13
2022-07-30T01:30:18.527Z,991.14
2022-07-30T01:31:20.286Z,991.13
2022-07-30T01:32:21.948Z,991.16
2022-07-30T01:33:23.933Z,991.11
2022-07-30T01:34:25.435Z,991.18
2022-07-30T01:35:27.278Z,991.21
2022-07-30T01:36:28.861Z,991.14
2022-07-30T01:37:30.685Z,991.17
2022-07-30T01:38:35.007Z,991.15
2022-07-30T01:39:34.106Z,991.17
2022-07-30T01:40:35.823Z,991.14
2022-07-30T01:41:37.628Z,991.2
2022-07-30T01:42:39.333Z,991.2
2022-07-30T01:43:41.140Z,991.22
2022-07-30T01:44:42.893Z,991.17
2022-07-30T01:45:44.716Z,991.18
2022-07-30T01:46:46.243Z,991.24
2022-07-30T01:47:47.953Z,991.24
2022-07-30T01:48:49.703Z,991.22
2022-07-30T01:49:51.501Z,991.27
2022-07-30T01:50:53.175Z,991.24
2022-07-30T01:51:54.997Z,991.25
2022-07-30T01:52:56.657Z,991.24
2022-07-30T01:53:58.355Z,991.27
2022-07-30T01:55:00.098Z,991.26
2022-07-30T01:56:05.051Z,991.27
2022-07-30T01:57:03.741Z,991.28
2022-07-30T01:58:05.262Z,991.25
2022-07-30T01:59:07.108Z,991.27
2022-07-30T02:00:09.019Z,991.33
2022-07-30T02:01:10.514Z,991.31
2022-07-30T02:02:12.468Z,991.33
2022-07-30T02:03:14.313Z,991.35
2022-07-30T02:04:15.819Z,991.32
2022-07-30T02:05:17.409Z,991.3
2022-07-30T02:06:19.143Z,991.36
2022-07-30T02:07:21.002Z,991.35
2022-07-30T02:08:22.644Z,991.29
2022-07-30T02:09:24.636Z,991.35
2022-07-30T02:10:26.086Z,991.38
2022-07-30T02:11:27.917Z,991.38
2022-07-30T02:12:29.524Z,991.41
2022-07-30T02:13:31.630Z,991.37
2022-07-30T02:14:33.006Z,991.34
2022-07-30T02:15:34.936Z,991.35
2022-07-30T02:16:36.649Z,991.35
2022-07-30T02:17:39.737Z,991.35
2022-07-30T02:18:39.935Z,991.33
2022-07-30T02:19:42.064Z,991.35
2022-07-30T02:20:43.504Z,991.4
2022-07-30T02:21:50.673Z,991.4
2022-07-30T02:22:47.030Z,991.36
2022-07-30T02:23:48.697Z,991.35
2022-07-30T02:24:50.377Z,991.33
2022-07-30T02:25:52.120Z,991.33
2022-07-30T02:26:53.910Z,991.32
2022-07-30T02:27:55.579Z,991.36
2022-07-30T02:28:57.370Z,991.35
2022-07-30T02:29:59.000Z,991.38
2022-07-30T02:31:00.977Z,991.35
2022-07-30T02:32:02.600Z,991.39
2022-07-30T02:33:04.638Z,991.39
2022-07-30T02:34:05.982Z,991.36
2022-07-30T02:35:07.890Z,991.31
2022-07-30T02:36:11.215Z,991.38
2022-07-30T02:37:11.558Z,991.38
2022-07-30T02:38:13.216Z,991.35
2022-07-30T02:39:14.950Z,991.36
2022-07-30T02:40:16.371Z,991.38
2022-07-30T02:41:18.125Z,991.4
2022-07-30T02:42:21.558Z,991.35
2022-07-30T02:43:21.571Z,991.38
2022-07-30T02:44:23.594Z,991.38
2022-07-30T02:45:25.119Z,991.4
2022-07-30T02:46:26.829Z,991.39
2022-07-30T02:47:28.517Z,991.32
2022-07-30T02:48:35.178Z,991.43
2022-07-30T02:49:32.227Z,991.41
2022-07-30T02:50:34.130Z,991.43
2022-07-30T02:51:35.450Z,991.43
2022-07-30T02:52:37.271Z,991.39
2022-07-30T02:53:39.027Z,991.44
2022-07-30T02:54:40.746Z,991.5
2022-07-30T02:55:42.769Z,991.49
2022-07-30T02:56:44.305Z,991.47
2022-07-30T02:57:45.850Z,991.49
2022-07-30T02:58:47.632Z,991.48
2022-07-30T02:59:49.288Z,991.47
2022-07-30T03:00:51.229Z,991.5
2022-07-30T03:01:52.856Z,991.48
2022-07-30T03:02:56.563Z,991.51
2022-07-30T03:03:56.256Z,991.53
2022-07-30T03:04:57.981Z,991.55
2022-07-30T03:05:59.715Z,991.52
2022-07-30T03:07:06.273Z,991.51
2022-07-30T03:08:03.345Z,991.52
2022-07-30T03:09:04.989Z,991.51
2022-07-30T03:10:06.754Z,991.5
2022-07-30T03:11:08.384Z,991.48
2022-07-30T03:12:10.215Z,991.45
2022-07-30T03:13:12.057Z,991.47
2022-07-30T03:14:13.597Z,991.5
2022-07-30T03:15:15.330Z,991.44
2022-07-30T03:16:17.126Z,991.47
2022-07-30T03:17:18.744Z,991.5
2022-07-30T03:18:20.495Z,991.43
2022-07-30T03:19:22.255Z,991.43
2022-07-30T03:20:24.057Z,991.38
2022-07-30T03:21:25.817Z,991.41
2022-07-30T03:22:32.601Z,991.44
2022-07-30T03:23:29.155Z,991.39
2022-07-30T03:24:30.895Z,991.44
2022-07-30T03:25:32.764Z,991.45
2022-07-30T03:26:34.455Z,991.46
2022-07-30T03:27:36.085Z,991.45
2022-07-30T03:28:37.821Z,991.47
2022-07-30T03:29:39.637Z,991.47
2022-07-30T03:30:41.395Z,991.49
2022-07-30T03:31:43.250Z,991.5
2022-07-30T03:32:44.820Z,991.51
2022-07-30T03:33:46.522Z,991.54
2022-07-30T03:34:48.327Z,991.5
2022-07-30T03:35:50.062Z,991.47
2022-07-30T03:36:56.264Z,991.52
2022-07-30T03:37:58.527Z,991.54
2022-07-30T03:39:00.424Z,991.52
2022-07-30T03:40:02.233Z,991.52
2022-07-30T03:41:04.892Z,991.52
2022-07-30T03:42:11.452Z,991.54
2022-07-30T03:43:32.570Z,991.56
2022-07-30T03:44:14.241Z,991.57
2022-07-30T03:45:15.812Z,991.57
2022-07-30T03:46:17.741Z,991.56
2022-07-30T03:47:19.289Z,991.61
2022-07-30T03:48:21.088Z,991.6
2022-07-30T03:49:22.949Z,991.63
2022-07-30T03:50:24.661Z,991.63
2022-07-30T03:51:26.216Z,991.64
2022-07-30T03:52:28.023Z,991.65
2022-07-30T03:53:29.736Z,991.66
2022-07-30T03:54:31.422Z,991.71
2022-07-30T03:55:33.252Z,991.65
2022-07-30T03:56:34.877Z,991.7
2022-07-30T03:57:36.622Z,991.72
2022-07-30T03:58:38.342Z,991.76
2022-07-30T03:59:40.297Z,991.69
2022-07-30T04:00:41.823Z,991.78
2022-07-30T04:01:43.807Z,991.78
2022-07-30T04:02:45.354Z,991.77
2022-07-30T04:03:47.083Z,991.8
2022-07-30T04:04:48.815Z,991.8
2022-07-30T04:05:50.479Z,991.81
2022-07-30T04:06:52.281Z,991.82
2022-07-30T04:07:54.077Z,991.8
2022-07-30T04:08:55.806Z,991.82
2022-07-30T04:09:57.482Z,991.83
2022-07-30T04:10:59.147Z,991.82
2022-07-30T04:12:00.962Z,991.82
2022-07-30T04:13:05.395Z,991.88
2022-07-30T04:14:04.416Z,991.87
2022-07-30T04:16:38.323Z,991.91
2022-07-30T04:16:40.383Z,991.92
2022-07-30T04:17:09.575Z,991.91
2022-07-30T04:18:11.186Z,991.95
2022-07-30T04:19:12.924Z,991.98
2022-07-30T04:20:18.020Z,991.98
2022-07-30T04:21:17.431Z,991.97
2022-07-30T04:22:18.193Z,991.94
2022-07-30T04:23:19.863Z,991.99
2022-07-30T04:24:21.709Z,991.97
2022-07-30T04:25:24.859Z,991.99
2022-07-30T04:26:24.995Z,991.98
2022-07-30T04:27:26.829Z,991.98
2022-07-30T04:28:28.437Z,992.01
2022-07-30T04:29:30.172Z,992.02
2022-07-30T04:30:32.013Z,992.03
2022-07-30T04:31:33.744Z,992.03
2022-07-30T04:32:35.483Z,992.07
2022-07-30T04:33:37.094Z,992.1
2022-07-30T04:34:38.966Z,992.07
2022-07-30T04:35:50.738Z,992.08
2022-07-30T04:36:42.295Z,992.1
2022-07-30T04:37:44.172Z,992.15
2022-07-30T04:38:45.977Z,992.07
2022-07-30T04:39:47.637Z,992.19
2022-07-30T04:40:49.233Z,992.17
2022-07-30T04:41:51.032Z,992.18
2022-07-30T04:42:52.839Z,992.18
2022-07-30T04:43:54.440Z,992.2
2022-07-30T04:44:56.203Z,992.19
2022-07-30T04:45:57.974Z,992.2
2022-07-30T04:47:00.013Z,992.23
2022-07-30T04:48:01.481Z,992.18
2022-07-30T04:49:03.325Z,992.19
2022-07-30T04:50:04.900Z,992.26
2022-07-30T04:51:06.625Z,992.22
2022-07-30T04:51:22.386Z,992.26
2022-07-30T04:52:13.508Z,992.25
2022-07-30T04:53:30.671Z,992.28
2022-07-30T04:54:32.388Z,992.3
2022-07-30T04:55:34.162Z,992.27
2022-07-30T04:56:35.888Z,992.32
2022-07-30T04:57:37.593Z,992.33
2022-07-30T04:58:39.321Z,992.32
2022-07-30T04:59:41.068Z,992.32
2022-07-30T05:00:42.849Z,992.31
2022-07-30T05:01:44.599Z,992.33
2022-07-30T05:02:46.273Z,992.29
2022-07-30T05:03:47.197Z,992.32
2022-07-30T05:04:49.833Z,992.35
2022-07-30T05:05:56.796Z,992.34
2022-07-30T05:06:53.346Z,992.37
2022-07-30T05:07:54.955Z,992.38
2022-07-30T05:08:56.671Z,992.34
2022-07-30T05:09:58.415Z,992.34
2022-07-30T05:11:00.161Z,992.35
2022-07-30T05:12:02.060Z,992.38
2022-07-30T05:13:03.682Z,992.39
2022-07-30T05:14:05.335Z,992.37
2022-07-30T05:15:07.076Z,992.41
2022-07-30T05:16:09.000Z,992.35
2022-07-30T05:17:10.566Z,992.39
2022-07-30T05:18:12.424Z,992.43
2022-07-30T05:19:14.007Z,992.39
2022-07-30T05:20:15.749Z,992.41
2022-07-30T05:21:17.474Z,992.4
2022-07-30T05:22:19.291Z,992.44
2022-07-30T05:23:21.115Z,992.43
2022-07-30T05:24:22.710Z,992.44
2022-07-30T05:25:24.442Z,992.42
2022-07-30T05:26:27.507Z,992.38
2022-07-30T05:27:27.872Z,992.42
2022-07-30T05:28:29.850Z,992.42
2022-07-30T05:29:31.361Z,992.34
2022-07-30T05:30:33.110Z,992.4
2022-07-30T05:31:35.039Z,992.37
2022-07-30T05:32:36.559Z,992.43
2022-07-30T05:33:41.092Z,992.45
2022-07-30T05:34:40.034Z,992.43
2022-07-30T05:35:41.753Z,992.44
2022-07-30T05:36:43.554Z,992.48
2022-07-30T05:37:45.252Z,992.46
2022-07-30T05:38:47.152Z,992.48
2022-07-30T05:40:02.385Z,992.48
2022-07-30T05:40:50.441Z,992.5
2022-07-30T05:41:52.165Z,992.52
2022-07-30T05:42:53.980Z,992.54
2022-07-30T05:43:56.211Z,992.55
2022-07-30T05:44:57.550Z,992.51
2022-07-30T05:45:59.295Z,992.55
2022-07-30T05:47:01.114Z,992.56
2022-07-30T05:48:02.573Z,992.57
2022-07-30T05:49:04.630Z,992.61
2022-07-30T05:50:06.186Z,992.56
2022-07-30T05:51:07.913Z,992.55
2022-07-30T05:52:09.657Z,992.56
2022-07-30T05:53:11.316Z,992.56
2022-07-30T05:54:12.972Z,992.54
2022-07-30T05:55:14.715Z,992.59
2022-07-30T05:56:16.583Z,992.55
2022-07-30T05:57:18.187Z,992.56
2022-07-30T05:58:20.087Z,992.5
2022-07-30T05:59:21.726Z,992.55
2022-07-30T06:00:23.578Z,992.55
2022-07-30T06:01:25.380Z,992.55
2022-07-30T06:02:26.854Z,992.59
2022-07-30T06:03:28.785Z,992.61
2022-07-30T06:04:30.358Z,992.59
2022-07-30T06:05:32.201Z,992.59
2022-07-30T06:06:33.932Z,992.64
2022-07-30T06:07:35.662Z,992.63
2022-07-30T06:08:37.422Z,992.65
2022-07-30T06:09:39.137Z,992.68
2022-07-30T06:10:40.873Z,992.65
2022-07-30T06:11:42.600Z,992.58
2022-07-30T06:12:44.272Z,992.65
2022-07-30T06:13:46.075Z,992.67
2022-07-30T06:14:47.689Z,992.7
2022-07-30T06:15:49.570Z,992.67
2022-07-30T06:16:51.234Z,992.66
2022-07-30T06:18:01.610Z,992.67
2022-07-30T06:18:54.745Z,992.66
2022-07-30T06:19:56.444Z,992.65
2022-07-30T06:20:58.299Z,992.68
2022-07-30T06:22:05.847Z,992.64
2022-07-30T06:23:01.832Z,992.64
2022-07-30T06:24:03.379Z,992.69
2022-07-30T06:25:04.981Z,992.67
2022-07-30T06:26:06.743Z,992.67
2022-07-30T06:27:08.439Z,992.59
2022-07-30T06:28:27.864Z,992.67
2022-07-30T06:29:13.403Z,992.67
2022-07-30T06:30:13.781Z,992.64
2022-07-30T06:31:15.690Z,992.67
2022-07-30T06:32:17.281Z,992.61
2022-07-30T06:33:18.995Z,992.69
2022-07-30T06:34:20.799Z,992.74
2022-07-30T06:35:22.632Z,992.7
2022-07-30T06:36:24.199Z,992.73
2022-07-30T06:38:06.385Z,992.67
2022-07-30T06:38:27.537Z,992.68
2022-07-30T06:39:56.886Z,992.7
2022-07-30T06:40:31.010Z,992.72
2022-07-30T06:41:32.927Z,992.75
2022-07-30T06:42:34.562Z,992.68
2022-07-30T06:43:36.199Z,992.71
2022-07-30T06:44:38.004Z,992.71
2022-07-30T06:45:39.683Z,992.73
2022-07-30T06:46:41.606Z,992.73
2022-07-30T06:47:43.299Z,992.76
2022-07-30T06:48:45.063Z,992.74
2022-07-30T06:49:46.882Z,992.72
2022-07-30T06:50:48.493Z,992.77
2022-07-30T06:51:50.375Z,992.78
2022-07-30T06:52:51.810Z,992.78
2022-07-30T06:53:53.812Z,992.76
2022-07-30T06:54:55.276Z,992.78
2022-07-30T06:56:00.281Z,992.74
2022-07-30T06:56:59.387Z,992.78
2022-07-30T06:58:00.707Z,992.77
2022-07-30T06:59:02.439Z,992.76
2022-07-30T07:00:03.985Z,992.78
2022-07-30T07:01:11.311Z,992.83
2022-07-30T07:02:07.542Z,992.84
2022-07-30T07:03:11.808Z,992.82
2022-07-30T07:04:11.262Z,992.8
2022-07-30T07:05:13.210Z,992.82
2022-07-30T07:06:14.780Z,992.8
2022-07-30T07:07:31.500Z,992.84
2022-07-30T07:08:18.283Z,992.85
2022-07-30T07:09:19.759Z,992.83
2022-07-30T07:10:21.644Z,992.83
2022-07-30T07:11:23.310Z,992.83
2022-07-30T07:12:24.914Z,992.8
2022-07-30T07:13:26.853Z,992.85
2022-07-30T07:14:28.378Z,992.74
2022-07-30T07:15:36.326Z,992.84
2022-07-30T07:16:32.001Z,992.75
2022-07-30T07:17:33.801Z,992.78
2022-07-30T07:18:35.450Z,992.73
2022-07-30T07:20:00.045Z,992.78
2022-07-30T07:20:38.880Z,992.79
2022-07-30T07:21:40.570Z,992.79
2022-07-30T07:22:42.478Z,992.81
2022-07-30T07:23:44.209Z,992.81
2022-07-30T07:24:45.879Z,992.81
2022-07-30T07:25:47.607Z,992.82
2022-07-30T07:26:49.361Z,992.8
2022-07-30T07:28:11.771Z,992.8
2022-07-30T07:28:52.724Z,992.83
2022-07-30T07:30:01.326Z,992.77
2022-07-30T07:30:56.541Z,992.77
2022-07-30T07:32:06.273Z,992.8
2022-07-30T07:32:59.813Z,992.81
2022-07-30T07:34:01.334Z,992.81
2022-07-30T07:35:03.195Z,992.83
2022-07-30T07:36:04.926Z,992.79
2022-07-30T07:37:06.701Z,992.79
2022-07-30T07:38:08.519Z,992.86
2022-07-30T07:39:13.074Z,992.85
2022-07-30T07:40:11.783Z,992.79
2022-07-30T07:41:13.510Z,992.85
2022-07-30T07:42:15.426Z,992.81
2022-07-30T07:43:17.042Z,992.83
2022-07-30T07:44:18.861Z,992.86
2022-07-30T07:45:20.591Z,992.82
2022-07-30T07:46:33.716Z,992.81
2022-07-30T07:47:24.015Z,992.87
2022-07-30T07:48:25.774Z,992.83
2022-07-30T07:49:27.652Z,992.84
2022-07-30T07:50:29.261Z,992.86
2022-07-30T07:51:34.782Z,992.82
2022-07-30T07:52:32.506Z,992.85
2022-07-30T07:53:34.485Z,992.81
2022-07-30T07:54:36.179Z,992.84
2022-07-30T07:55:37.817Z,992.84
2022-07-30T07:56:39.692Z,992.81
2022-07-30T07:57:41.461Z,992.84
2022-07-30T07:58:43.173Z,992.8
2022-07-30T07:59:44.705Z,992.8
2022-07-30T08:00:47.051Z,992.8
2022-07-30T08:01:49.871Z,992.79
2022-07-30T08:02:50.720Z,992.82
2022-07-30T08:03:52.519Z,992.77
2022-07-30T08:04:53.403Z,992.82
2022-07-30T08:06:01.736Z,992.81
2022-07-30T08:06:56.856Z,992.8
2022-07-30T08:07:58.777Z,992.75
2022-07-30T08:09:00.414Z,992.76
2022-07-30T08:10:02.167Z,992.76
2022-07-30T08:11:13.742Z,992.81
2022-07-30T08:12:05.589Z,992.79
2022-07-30T08:13:07.145Z,992.78
2022-07-30T08:14:09.060Z,992.71
2022-07-30T08:15:10.877Z,992.77
2022-07-30T08:16:12.760Z,992.75
2022-07-30T08:17:14.222Z,992.76
2022-07-30T08:18:15.973Z,992.78
2022-07-30T08:19:17.466Z,992.79
2022-07-30T08:20:19.196Z,992.8
2022-07-30T08:21:21.116Z,992.8
2022-07-30T08:22:22.683Z,992.78
2022-07-30T08:23:24.482Z,992.8
2022-07-30T08:24:26.149Z,992.77
2022-07-30T08:25:27.881Z,992.84
2022-07-30T08:26:29.611Z,992.8
2022-07-30T08:27:31.347Z,992.78
2022-07-30T08:28:36.176Z,992.81
2022-07-30T08:29:36.277Z,992.74
2022-07-30T08:30:36.750Z,992.76
2022-07-30T08:31:38.305Z,992.79
2022-07-30T08:32:40.014Z,992.73
2022-07-30T08:33:41.738Z,992.78
2022-07-30T08:34:43.596Z,992.8
2022-07-30T08:35:52.837Z,992.84
2022-07-30T08:36:46.961Z,992.83
2022-07-30T08:37:48.761Z,992.83
2022-07-30T08:38:50.421Z,992.84
2022-07-30T08:39:52.225Z,992.8
2022-07-30T08:40:53.891Z,992.82
2022-07-30T08:41:55.642Z,992.81
2022-07-30T08:42:57.361Z,992.84
2022-07-30T08:43:59.109Z,992.85
2022-07-30T08:45:00.829Z,992.84
2022-07-30T08:46:07.576Z,992.8
2022-07-30T08:47:04.934Z,992.82
2022-07-30T08:48:06.034Z,992.85
2022-07-30T08:49:10.978Z,992.84
2022-07-30T08:50:09.518Z,992.79
2022-07-30T08:51:11.268Z,992.81
2022-07-30T08:52:12.973Z,992.8
2022-07-30T08:53:14.706Z,992.83
2022-07-30T08:54:16.508Z,992.8
2022-07-30T08:55:18.180Z,992.81
2022-07-30T08:56:19.923Z,992.79
2022-07-30T08:57:21.653Z,992.81
2022-07-30T08:58:23.395Z,992.78
2022-07-30T08:59:25.113Z,992.83
2022-07-30T09:00:26.875Z,992.77
2022-07-30T09:01:28.618Z,992.79
2022-07-30T09:02:30.697Z,992.77
2022-07-30T09:03:32.071Z,992.8
2022-07-30T09:04:34.235Z,992.78
2022-07-30T09:05:35.539Z,992.8
2022-07-30T09:06:37.450Z,992.81
2022-07-30T09:07:38.986Z,992.77
2022-07-30T09:08:40.734Z,992.8
2022-07-30T09:09:42.464Z,992.77
2022-07-30T09:10:52.756Z,992.73
2022-07-30T09:11:45.928Z,992.77
2022-07-30T09:12:47.666Z,992.82
2022-07-30T09:13:49.531Z,992.79
2022-07-30T09:14:51.175Z,992.78
2022-07-30T09:15:52.866Z,992.79
2022-07-30T09:16:54.665Z,992.82
2022-07-30T09:17:56.362Z,992.83
2022-07-30T09:18:58.208Z,992.84
2022-07-30T09:19:59.806Z,992.87
2022-07-30T09:21:01.545Z,992.83
2022-07-30T09:22:03.371Z,992.84
2022-07-30T09:23:05.015Z,992.86
2022-07-30T09:24:06.818Z,992.83
2022-07-30T09:25:08.503Z,992.84
2022-07-30T09:26:10.275Z,992.83
2022-07-30T09:27:11.950Z,992.85
2022-07-30T09:28:16.089Z,992.83
2022-07-30T09:29:15.548Z,992.79
2022-07-30T09:30:17.541Z,992.79
2022-07-30T09:31:19.030Z,992.78
2022-07-30T09:32:20.654Z,992.78
2022-07-30T09:33:22.464Z,992.75
2022-07-30T09:34:24.163Z,992.76
2022-07-30T09:35:25.844Z,992.8
2022-07-30T09:36:27.562Z,992.79
2022-07-30T09:37:29.307Z,992.83
2022-07-30T09:38:31.171Z,992.84
2022-07-30T09:39:32.834Z,992.83
2022-07-30T09:40:34.500Z,992.83
2022-07-30T09:41:39.144Z,992.83
2022-07-30T09:42:37.971Z,992.79
2022-07-30T09:43:39.769Z,992.77
2022-07-30T09:44:41.507Z,992.8
2022-07-30T09:45:43.199Z,992.79
2022-07-30T09:46:44.996Z,992.77
2022-07-30T09:47:46.708Z,992.78
2022-07-30T09:48:48.424Z,992.8
2022-07-30T09:49:50.132Z,992.8
2022-07-30T09:50:51.926Z,992.82
2022-07-30T09:51:56.662Z,992.77
2022-07-30T09:52:55.318Z,992.81
2022-07-30T09:53:57.774Z,992.8
2022-07-30T09:54:58.788Z,992.76
2022-07-30T09:56:00.531Z,992.76
2022-07-30T09:57:02.256Z,992.77
2022-07-30T09:58:04.052Z,992.75
2022-07-30T09:59:05.728Z,992.76
2022-07-30T10:00:07.503Z,992.72
2022-07-30T10:01:09.227Z,992.72
2022-07-30T10:02:10.954Z,992.71
2022-07-30T10:03:33.241Z,992.72
2022-07-30T10:04:14.429Z,992.7
2022-07-30T10:05:16.190Z,992.64
2022-07-30T10:06:17.895Z,992.66
2022-07-30T10:07:25.159Z,992.68
2022-07-30T10:08:21.396Z,992.65
2022-07-30T10:09:23.067Z,992.69
2022-07-30T10:10:25.656Z,992.71
2022-07-30T10:11:26.613Z,992.72
2022-07-30T10:12:28.286Z,992.7
2022-07-30T10:13:32.450Z,992.65
2022-07-30T10:14:32.180Z,992.68
2022-07-30T10:15:34.664Z,992.64
2022-07-30T10:16:35.230Z,992.62
2022-07-30T10:17:37.024Z,992.66
2022-07-30T10:18:38.689Z,992.63
2022-07-30T10:19:41.915Z,992.64
2022-07-30T10:20:42.163Z,992.62
2022-07-30T10:21:43.910Z,992.6
2022-07-30T10:22:46.697Z,992.54
2022-07-30T10:23:50.580Z,992.56
2022-07-30T10:24:49.097Z,992.51
2022-07-30T10:25:55.172Z,992.56
2022-07-30T10:26:52.631Z,992.56
2022-07-30T10:27:58.112Z,992.57
2022-07-30T10:28:56.103Z,992.6
2022-07-30T10:29:57.775Z,992.58
2022-07-30T10:30:59.901Z,992.55
2022-07-30T10:32:01.264Z,992.55
2022-07-30T10:33:03.133Z,992.58
2022-07-30T10:34:04.707Z,992.56
2022-07-30T10:35:06.518Z,992.6
2022-07-30T10:36:09.023Z,992.55
2022-07-30T10:37:09.996Z,992.56
2022-07-30T10:38:13.784Z,992.55
2022-07-30T10:39:13.388Z,992.53
2022-07-30T10:40:15.142Z,992.56
2022-07-30T10:41:16.868Z,992.55
2022-07-30T10:42:18.649Z,992.57
2022-07-30T10:43:20.419Z,992.56
2022-07-30T10:44:22.048Z,992.53
2022-07-30T10:45:24.008Z,992.55
2022-07-30T10:46:27.136Z,992.51
2022-07-30T10:47:34.533Z,992.55
2022-07-30T10:48:28.994Z,992.56
2022-07-30T10:49:30.740Z,992.56
2022-07-30T10:50:32.463Z,992.6
2022-07-30T10:51:34.690Z,992.56
2022-07-30T10:52:35.937Z,992.55
2022-07-30T10:53:37.735Z,992.52
2022-07-30T10:54:40.087Z,992.52
2022-07-30T10:55:41.196Z,992.48
2022-07-30T10:56:42.869Z,992.48
2022-07-30T10:57:44.643Z,992.5
2022-07-30T10:58:48.596Z,992.52
2022-07-30T10:59:48.074Z,992.51
2022-07-30T11:00:49.830Z,992.52
2022-07-30T11:01:53.513Z,992.48
2022-07-30T11:02:53.312Z,992.54
2022-07-30T11:03:55.033Z,992.53
2022-07-30T11:04:56.779Z,992.49
2022-07-30T11:05:58.510Z,992.48
2022-07-30T11:07:00.272Z,992.52
2022-07-30T11:08:02.016Z,992.54
2022-07-30T11:09:03.882Z,992.5
2022-07-30T11:10:09.500Z,992.52
2022-07-30T11:11:19.129Z,992.49
2022-07-30T11:12:08.957Z,992.49
2022-07-30T11:13:10.630Z,992.49
2022-07-30T11:14:12.351Z,992.49
2022-07-30T11:15:18.248Z,992.51
2022-07-30T11:16:15.903Z,992.52
2022-07-30T11:17:17.576Z,992.49
2022-07-30T11:18:19.311Z,992.51
2022-07-30T11:19:55.473Z,992.5
2022-07-30T11:20:22.842Z,992.45
2022-07-30T11:21:24.581Z,992.43
2022-07-30T11:22:26.242Z,992.46
2022-07-30T11:23:28.318Z,992.43
2022-07-30T11:24:29.780Z,992.36
2022-07-30T11:25:50.355Z,992.43
2022-07-30T11:26:33.186Z,992.42
2022-07-30T11:27:36.042Z,992.36
2022-07-30T11:28:36.858Z,992.42
2022-07-30T11:29:51.366Z,992.38
2022-07-30T11:30:40.174Z,992.42
2022-07-30T11:31:57.074Z,992.37
2022-07-30T11:32:43.611Z,992.33
2022-07-30T11:33:45.587Z,992.3
2022-07-30T11:34:47.175Z,992.28
2022-07-30T11:35:48.793Z,992.29
2022-07-30T11:36:50.513Z,992.39
2022-07-30T11:37:52.445Z,992.35
2022-07-30T11:38:54.010Z,992.32
2022-07-30T11:39:55.721Z,992.3
2022-07-30T11:40:57.603Z,992.25
2022-07-30T11:41:59.462Z,992.25
2022-07-30T11:43:01.115Z,992.24
2022-07-30T11:44:02.733Z,992.3
2022-07-30T11:45:04.436Z,992.27
2022-07-30T11:46:06.385Z,992.3
2022-07-30T11:47:08.006Z,992.3
2022-07-30T11:48:09.664Z,992.28
2022-07-30T11:49:11.767Z,992.32
2022-07-30T11:50:13.218Z,992.31
2022-07-30T11:51:14.936Z,992.36
2022-07-30T11:52:16.675Z,992.38
2022-07-30T11:53:18.417Z,992.34
2022-07-30T11:54:20.010Z,992.32
2022-07-30T11:55:21.761Z,992.3
2022-07-30T11:56:23.481Z,992.26
2022-07-30T11:57:25.220Z,992.21
2022-07-30T11:58:26.961Z,992.17
2022-07-30T11:59:28.709Z,992.2
2022-07-30T12:00:30.464Z,992.23
2022-07-30T12:01:32.185Z,992.22
2022-07-30T12:02:33.916Z,992.16
2022-07-30T12:03:35.855Z,992.21
2022-07-30T12:04:37.375Z,992.17
2022-07-30T12:05:39.380Z,992.14
2022-07-30T12:06:41.034Z,992.17
2022-07-30T12:07:42.577Z,992.18
2022-07-30T12:08:44.306Z,992.21
2022-07-30T12:09:46.055Z,992.17
2022-07-30T12:10:47.769Z,992.13
2022-07-30T12:11:49.519Z,992.17
2022-07-30T12:12:51.226Z,992.2
2022-07-30T12:13:52.963Z,992.2
2022-07-30T12:14:57.920Z,992.17
2022-07-30T12:15:56.522Z,992.16
2022-07-30T12:16:58.174Z,992.17
2022-07-30T12:18:24.291Z,992.11
2022-07-30T12:19:01.678Z,992.07
2022-07-30T12:20:03.371Z,992.02
2022-07-30T12:21:05.124Z,992.07
2022-07-30T12:22:06.880Z,992.05
2022-07-30T12:23:08.670Z,992.01
2022-07-30T12:24:10.433Z,992.08
2022-07-30T12:25:12.041Z,992.02
2022-07-30T12:26:13.985Z,991.99
2022-07-30T12:27:15.666Z,992.04
2022-07-30T12:28:17.252Z,991.99
2022-07-30T12:29:19.141Z,992.02
2022-07-30T12:30:20.878Z,992.01
2022-07-30T12:31:22.758Z,992
2022-07-30T12:32:24.607Z,992.03
2022-07-30T12:33:25.959Z,992.04
2022-07-30T12:34:27.701Z,992.03
2022-07-30T12:35:29.460Z,992
2022-07-30T12:36:31.419Z,991.99
2022-07-30T12:37:32.919Z,991.96
2022-07-30T12:38:34.790Z,992.03
2022-07-30T12:39:36.458Z,992
2022-07-30T12:40:38.270Z,991.99
2022-07-30T12:41:39.886Z,991.98
2022-07-30T12:42:41.673Z,992
2022-07-30T12:43:43.343Z,991.94
2022-07-30T12:44:45.180Z,992.11
2022-07-30T12:45:52.007Z,992.05
2022-07-30T12:46:48.481Z,992.07
2022-07-30T12:47:50.288Z,992.07
2022-07-30T12:48:52.106Z,992.11
2022-07-30T12:49:53.788Z,992.04
2022-07-30T12:50:55.441Z,992.09
2022-07-30T12:51:59.971Z,992.1
2022-07-30T12:52:58.889Z,992.09